Date,TemperatureHighF,TemperatureAvgF,TemperatureLowF,DewpointHighF,DewpointAvgF,DewpointLowF,HumidityHigh,HumidityAvg,HumidityLow,PressureMaxIn,PressureMinIn,WindSpeedMaxMPH,WindSpeedAvgMPH,GustSpeedMaxMPH,PrecipitationSumIn
2013-12-1,39.2,32.9,26.0,31.1,27.2,15.7,90,79,64,30.46,30.05,2,0,2,0.00
2013-12-2,40.9,35.0,29.4,35.5,31.8,28.1,96,88,79,30.05,29.93,1,0,3,0.00
2013-12-3,44.8,35.5,27.0,36.5,31.6,25.3,97,86,69,29.99,29.89,2,0,4,0.00
2013-12-4,42.0,29.8,21.6,30.5,25.4,20.2,96,85,57,30.15,29.85,2,0,3,0.00
2013-12-5,40.1,34.9,28.1,39.6,33.2,26.1,98,94,85,29.93,29.64,3,0,4,0.06
2013-12-6,46.8,41.2,32.1,46.0,37.2,31.1,98,86,63,30.18,29.59,14,1,14,0.22
2013-12-7,37.2,32.6,26.3,31.7,25.3,17.8,97,76,52,30.44,30.10,11,1,18,0.05
2013-12-8,30.5,27.3,22.4,20.9,17.4,13.5,87,67,50,30.55,30.43,2,0,3,0.00
2013-12-9,32.3,29.0,24.3,31.2,26.8,18.3,98,92,67,30.45,29.88,2,0,5,0.00
2013-12-10,33.1,29.2,19.1,31.3,25.8,14.9,98,88,65,29.98,29.79,7,0,14,0.00
2013-12-11,31.2,23.1,17.2,21.4,16.7,13.4,92,77,48,30.18,29.98,10,2,17,0.00
2013-12-12,23.0,16.5,7.0,19.9,7.7,0.4,91,70,37,30.27,30.02,8,1,15,0.00
2013-12-13,27.8,16.1,5.2,22.7,11.3,2.7,91,82,62,30.37,29.97,5,0,10,0.00
2013-12-14,13.8,10.0,6.6,11.4,2.9,-2.3,90,73,56,30.58,30.12,6,1,9,0.00
2013-12-15,29.8,23.2,13.8,27.0,19.4,11.4,93,86,65,30.10,29.48,11,2,13,0.00
2013-12-16,26.0,21.2,8.6,20.5,9.3,2.6,88,61,46,30.17,29.70,10,2,21,0.00
2013-12-17,15.3,6.5,-5.4,11.4,3.1,-9.2,89,85,77,30.24,29.97,5,0,5,0.00
2013-12-18,31.7,19.7,10.2,22.1,14.9,7.9,93,82,64,30.04,29.92,4,0,13,0.00
2013-12-19,42.4,31.5,15.3,25.2,22.2,12.9,93,71,49,30.07,29.92,6,1,9,0.11
2013-12-20,41.7,31.8,24.8,35.6,28.8,22.3,97,89,63,30.08,29.90,4,0,5,0.25
2013-12-21,48.2,37.1,31.6,39.2,34.7,30.9,97,91,71,29.93,29.82,2,0,3,0.13
2013-12-22,55.7,45.3,35.4,55.4,44.9,34.6,99,98,97,29.91,29.66,8,1,9,0.04
2013-12-23,40.4,38.6,35.9,40.1,37.8,29.9,99,97,78,30.10,29.88,7,0,12,0.52
2013-12-24,36.0,30.2,20.2,29.2,17.7,6.4,76,60,39,30.24,30.03,11,2,16,0.00
2013-12-25,23.6,17.8,11.7,11.1,4.5,0.5,77,56,39,30.48,30.24,9,1,13,0.00
2013-12-26,28.5,22.3,17.9,23.0,16.5,8.4,95,79,60,30.43,30.08,3,0,9,0.00
2013-12-27,34.7,28.1,17.2,23.3,19.8,14.5,93,72,52,30.25,30.17,5,1,10,0.00
2013-12-28,42.4,29.3,18.2,29.6,23.8,16.1,95,81,57,30.18,29.97,5,1,8,0.05
2013-12-29,36.5,30.7,23.3,34.8,28.9,21.8,97,93,77,30.01,29.49,5,0,5,1.03
2013-12-30,35.6,31.2,13.5,34.3,27.7,5.2,96,87,50,30.16,29.54,13,0,20,0.00
2013-12-31,23.5,16.4,8.6,15.5,8.1,3.1,88,71,49,30.17,30.00,9,1,16,0.00